Time;durP1;ratioP1;P1;durP2;ratioP2;P2;SDS_P1;SDS_P2;PMS_P1;PMS_P2;Temp;Humidity;BMP_temperature;BMP_pressure;BME280_temperature;BME280_humidity;BME280_pressure;Samples;Min_cycle;Max_cycle;Signal;HPM_P1;HPM_P2
2022/04/15 00:00:39;;;;;;;18.05;12.93;;;;;;;18.46;42.56;93602.63;5013281;28;20046;-87
2022/04/15 00:03:07;;;;;;;16.98;13.57;;;;;;;18.45;42.70;93606.59;4993767;28;20048;-90
2022/04/15 00:05:40;;;;;;;20.92;13.10;;;;;;;18.45;42.50;93603.88;5033360;28;20040;-86
2022/04/15 00:08:07;;;;;;;15.93;12.48;;;;;;;18.42;42.18;93605.63;5014580;28;20469;-86
2022/04/15 00:10:32;;;;;;;17.48;13.82;;;;;;;18.45;42.50;93606.59;5013462;28;20037;-86
2022/04/15 00:12:58;;;;;;;16.73;13.07;;;;;;;18.46;42.35;93608.09;5013623;28;20057;-87
2022/04/15 00:15:24;;;;;;;17.33;13.00;;;;;;;18.44;42.39;93611.34;5012700;28;20045;-85
2022/04/15 00:17:49;;;;;;;16.08;13.70;;;;;;;18.42;42.78;93610.34;5028416;28;20041;-86
2022/04/15 00:20:15;;;;;;;14.55;12.93;;;;;;;18.43;42.45;93615.31;5012304;28;20423;-86
2022/04/15 00:22:40;;;;;;;17.05;13.10;;;;;;;18.42;42.38;93611.09;4997122;28;20538;-86
2022/04/15 00:25:07;;;;;;;18.73;13.82;;;;;;;18.42;42.44;93611.09;5010078;28;20052;-86
2022/04/15 00:27:32;;;;;;;17.33;13.40;;;;;;;18.43;42.69;93614.56;4995888;28;20043;-86
2022/04/15 00:29:58;;;;;;;13.68;11.43;;;;;;;18.42;42.36;93611.09;4996981;28;20116;-86
2022/04/15 00:32:23;;;;;;;16.60;12.55;;;;;;;18.41;42.73;93608.88;5010621;28;20037;-90
2022/04/15 00:34:49;;;;;;;16.63;12.65;;;;;;;18.43;42.62;93614.56;5013273;28;20029;-85
2022/04/15 00:37:14;;;;;;;16.13;12.90;;;;;;;18.42;42.62;93610.34;4995403;28;20045;-87
2022/04/15 00:39:45;;;;;;;17.90;13.75;;;;;;;18.42;42.46;93607.63;5029191;28;20030;-86
2022/04/15 00:42:10;;;;;;;19.23;13.82;;;;;;;18.40;42.58;93613.59;5032269;28;20128;-86
2022/04/15 00:44:36;;;;;;;14.90;12.35;;;;;;;18.40;42.70;93615.63;5031346;28;20045;-86
2022/04/15 00:47:01;;;;;;;14.57;12.15;;;;;;;18.40;42.29;93612.88;5032083;28;20645;-87
2022/04/15 00:49:27;;;;;;;15.60;12.30;;;;;;;18.40;42.41;93612.88;5010356;28;20488;-86
2022/04/15 00:51:52;;;;;;;17.52;12.82;;;;;;;18.39;42.58;93605.91;5012360;28;20040;-85
2022/04/15 00:54:18;;;;;;;16.02;12.63;;;;;;;18.37;42.30;93614.63;5006724;28;20047;-85
2022/04/15 00:56:44;;;;;;;15.25;12.77;;;;;;;18.40;42.44;93618.34;5028149;28;20564;-91
2022/04/15 00:59:09;;;;;;;14.70;12.57;;;;;;;18.39;42.53;93611.38;4997135;28;20033;-85
2022/04/15 01:01:35;;;;;;;17.58;12.38;;;;;;;18.39;42.41;93617.59;5011956;28;20419;-86
2022/04/15 01:04:00;;;;;;;15.88;12.77;;;;;;;18.38;42.53;93618.13;5011946;28;20513;-90
2022/04/15 01:06:26;;;;;;;17.13;13.75;;;;;;;18.36;42.24;93621.34;5027591;28;20073;-86
2022/04/15 01:08:52;;;;;;;17.13;12.90;;;;;;;18.38;42.55;93620.84;5028041;28;20120;-86
2022/04/15 01:11:17;;;;;;;15.35;13.02;;;;;;;18.38;42.32;93616.13;4995188;28;20050;-89
2022/04/15 01:13:42;;;;;;;18.38;12.68;;;;;;;18.36;42.65;93624.09;5034213;28;20091;-86
2022/04/15 01:16:08;;;;;;;14.95;12.27;;;;;;;18.38;42.35;93618.13;5013285;28;20407;-86
2022/04/15 01:18:33;;;;;;;14.07;11.40;;;;;;;18.39;42.63;93625.06;5011852;28;20495;-86
2022/04/15 01:21:00;;;;;;;13.27;11.05;;;;;;;18.36;42.54;93613.13;5011803;28;20041;-87
2022/04/15 01:23:26;;;;;;;15.13;13.20;;;;;;;18.36;42.43;93621.34;5011509;28;20045;-88
2022/04/15 01:25:51;;;;;;;12.88;10.60;;;;;;;18.35;43.01;93614.38;4995599;28;20034;-90
2022/04/15 01:28:17;;;;;;;15.50;13.27;;;;;;;18.37;42.12;93616.63;4994864;28;20435;-87
2022/04/15 01:30:43;;;;;;;16.33;12.00;;;;;;;18.36;42.37;93615.88;5022975;28;20506;-85
2022/04/15 01:33:08;;;;;;;16.10;12.65;;;;;;;18.36;42.40;93613.13;5035674;28;20036;-86
2022/04/15 01:35:34;;;;;;;15.50;12.27;;;;;;;18.36;42.39;93629.56;5027947;28;20025;-87
2022/04/15 01:37:59;;;;;;;18.67;13.00;;;;;;;18.35;42.44;93628.06;5027692;28;20029;-85
2022/04/15 01:40:25;;;;;;;17.35;12.45;;;;;;;18.35;42.48;93619.84;5010661;28;20029;-85
2022/04/15 01:42:50;;;;;;;14.98;11.88;;;;;;;18.34;42.60;93623.84;5024391;28;20033;-90
2022/04/15 01:45:16;;;;;;;13.68;11.40;;;;;;;18.35;42.25;93633.53;5029659;28;20510;-86
2022/04/15 01:47:41;;;;;;;15.57;11.70;;;;;;;18.34;42.50;93634.06;5014540;28;20487;-86
2022/04/15 01:50:07;;;;;;;13.98;10.75;;;;;;;18.36;42.78;93635.03;5014552;28;20041;-86
2022/04/15 01:52:34;;;;;;;15.23;11.75;;;;;;;18.35;42.85;93635.53;5031480;28;20478;-85
2022/04/15 01:55:00;;;;;;;12.75;11.13;;;;;;;18.34;42.62;93628.56;5013744;28;20083;-86
2022/04/15 01:57:25;;;;;;;14.90;11.05;;;;;;;18.34;42.53;93643.00;5029697;28;20037;-86
2022/04/15 01:59:52;;;;;;;12.98;10.90;;;;;;;18.33;42.54;93635.28;5047307;28;20419;-86
2022/04/15 02:02:17;;;;;;;12.50;10.68;;;;;;;18.34;42.46;93650.47;5027979;28;20033;-86
2022/04/15 02:04:43;;;;;;;13.32;10.63;;;;;;;18.34;42.57;93651.22;5030675;28;20479;-86
2022/04/15 02:07:08;;;;;;;12.45;10.10;;;;;;;18.33;42.90;93663.41;5011825;28;20491;-86
2022/04/15 02:09:33;;;;;;;14.27;9.98;;;;;;;18.34;42.46;93664.91;5010282;28;20041;-86
2022/04/15 02:11:59;;;;;;;12.77;10.48;;;;;;;18.35;42.54;93668.38;4995012;28;20041;-86
2022/04/15 02:14:24;;;;;;;16.30;10.23;;;;;;;18.33;42.52;93671.63;5010399;28;20466;-87
2022/04/15 02:16:51;;;;;;;12.48;9.55;;;;;;;18.34;42.71;93672.38;5010883;28;20126;-89
2022/04/15 02:19:17;;;;;;;12.73;9.18;;;;;;;18.34;43.02;93681.31;4993964;28;20132;-85
2022/04/15 02:21:42;;;;;;;11.23;9.82;;;;;;;18.33;42.78;93685.31;5010366;28;20045;-86
2022/04/15 02:24:08;;;;;;;12.88;10.30;;;;;;;18.32;42.51;93702.22;4978183;28;20041;-87
2022/04/15 02:26:33;;;;;;;12.23;10.00;;;;;;;18.34;42.99;93697.00;4994309;28;20038;-86
2022/04/15 02:28:59;;;;;;;12.10;10.00;;;;;;;18.34;42.99;93695.00;4994268;28;20045;-86
2022/04/15 02:31:24;;;;;;;12.82;10.77;;;;;;;18.31;42.64;93687.78;5016098;28;20029;-86
2022/04/15 02:33:50;;;;;;;12.13;9.73;;;;;;;18.33;42.90;93692.78;5010780;28;20029;-85
2022/04/15 02:36:16;;;;;;;13.00;11.07;;;;;;;18.31;42.89;93692.53;5010264;28;20070;-85
2022/04/15 02:38:41;;;;;;;13.20;10.82;;;;;;;18.27;43.11;93701.00;5027071;28;20034;-87
2022/04/15 02:41:07;;;;;;;13.20;11.25;;;;;;;18.31;42.81;93687.06;5018700;28;20110;-85
2022/04/15 02:43:32;;;;;;;12.75;10.60;;;;;;;18.30;43.28;93696.50;5025448;28;20041;-85
2022/04/15 02:46:00;;;;;;;12.20;10.23;;;;;;;18.31;42.90;93692.53;5026726;28;20037;-84
2022/04/15 02:48:26;;;;;;;16.65;11.00;;;;;;;18.29;43.08;93692.28;5008991;28;20167;-84
2022/04/15 02:50:51;;;;;;;12.05;10.60;;;;;;;18.31;42.97;93692.53;4996997;28;20437;-85
2022/04/15 02:53:17;;;;;;;12.82;10.77;;;;;;;18.29;43.25;93681.34;5013311;28;20079;-85
2022/04/15 02:55:42;;;;;;;13.65;10.52;;;;;;;18.30;43.76;93664.41;5010071;28;20037;-87
2022/04/15 02:58:08;;;;;;;11.55;9.88;;;;;;;18.27;43.53;93656.47;4992436;28;20042;-86
2022/04/15 03:00:33;;;;;;;12.52;10.50;;;;;;;18.27;43.52;93646.25;5019821;28;20037;-85
2022/04/15 03:02:58;;;;;;;19.63;11.73;;;;;;;18.26;43.72;93628.34;5009693;28;20062;-86
2022/04/15 03:05:24;;;;;;;13.93;10.85;;;;;;;18.27;43.32;93631.84;5009968;28;20033;-88
2022/04/15 03:07:49;;;;;;;12.13;10.27;;;;;;;18.26;43.13;93635.81;5012812;28;20045;-87
2022/04/15 03:10:15;;;;;;;11.48;9.98;;;;;;;18.25;43.23;93629.59;5029659;28;20529;-86
2022/04/15 03:12:41;;;;;;;12.85;10.50;;;;;;;18.25;43.46;93632.34;4997943;28;20048;-85
2022/04/15 03:15:09;;;;;;;11.38;10.13;;;;;;;18.25;43.36;93632.34;4993210;28;20030;-86
2022/04/15 03:17:34;;;;;;;11.75;9.57;;;;;;;18.26;43.58;93624.88;4993641;28;20129;-88
2022/04/15 03:20:02;;;;;;;11.65;9.80;;;;;;;18.26;43.09;93628.34;5034219;28;20041;-85
2022/04/15 03:22:36;;;;;;;11.60;9.90;;;;;;;18.25;43.34;93612.44;5045644;28;20048;-86
2022/04/15 03:25:01;;;;;;;10.07;8.82;;;;;;;18.24;43.47;93606.22;5013633;28;20029;-85
2022/04/15 03:27:27;;;;;;;10.05;8.98;;;;;;;18.24;43.67;93616.41;5028939;28;20560;-91
2022/04/15 03:29:52;;;;;;;8.93;7.75;;;;;;;18.24;43.72;93622.63;5010018;28;20577;-85
2022/04/15 03:32:18;;;;;;;9.50;8.18;;;;;;;18.23;43.44;93634.09;4997426;28;20056;-85
2022/04/15 03:34:43;;;;;;;10.43;9.25;;;;;;;18.25;43.87;93626.13;4994528;28;20033;-86
2022/04/15 03:37:08;;;;;;;9.93;8.93;;;;;;;18.23;43.91;93634.09;4993110;28;20056;-87
2022/04/15 03:39:35;;;;;;;14.38;9.60;;;;;;;18.23;43.60;93632.09;5009843;28;20076;-84
2022/04/15 03:42:04;;;;;;;10.15;9.07;;;;;;;18.24;43.78;93638.31;5027609;28;20056;-86
2022/04/15 03:44:29;;;;;;;10.90;8.40;;;;;;;18.23;43.84;93637.56;5013097;28;20159;-85
2022/04/15 03:46:54;;;;;;;10.70;8.60;;;;;;;18.20;43.84;93644.03;5012710;28;20033;-85
2022/04/15 03:49:20;;;;;;;11.02;8.75;;;;;;;18.23;43.60;93645.78;5027646;28;20866;-86
2022/04/15 03:51:45;;;;;;;9.32;8.32;;;;;;;18.21;43.58;93655.72;5025007;28;20088;-88
2022/04/15 03:54:11;;;;;;;9.27;8.15;;;;;;;18.19;43.18;93661.72;4993002;28;20503;-90
2022/04/15 03:56:37;;;;;;;10.85;8.27;;;;;;;18.22;43.66;93679.84;5009810;28;20037;-86
2022/04/15 03:59:03;;;;;;;10.05;8.50;;;;;;;18.22;43.25;93670.91;5026120;28;20029;-86
2022/04/15 04:01:29;;;;;;;10.93;8.50;;;;;;;18.21;43.52;93680.34;5008316;28;20037;-85
2022/04/15 04:03:54;;;;;;;9.90;7.70;;;;;;;18.21;43.53;93696.78;5013542;28;20042;-85
2022/04/15 04:06:20;;;;;;;11.40;8.13;;;;;;;18.21;43.66;93691.31;5016953;28;20037;-85
2022/04/15 04:08:49;;;;;;;9.30;8.05;;;;;;;18.21;43.26;93685.84;5033357;28;20037;-85
2022/04/15 04:11:16;;;;;;;8.07;7.28;;;;;;;18.20;43.09;93692.56;5048922;28;20037;-85
2022/04/15 04:13:42;;;;;;;9.75;8.75;;;;;;;18.19;43.87;93682.88;5016563;28;20191;-85
2022/04/15 04:16:07;;;;;;;9.73;7.85;;;;;;;18.22;43.61;93688.06;5032039;28;20045;-90
2022/04/15 04:18:33;;;;;;;9.48;7.80;;;;;;;18.18;43.89;93673.19;5015983;28;20063;-86
2022/04/15 04:20:58;;;;;;;9.07;8.05;;;;;;;18.17;43.45;93688.84;5015468;28;20055;-85
2022/04/15 04:23:24;;;;;;;9.30;8.00;;;;;;;18.19;43.38;93683.59;5027688;28;20367;-86
2022/04/15 04:25:49;;;;;;;9.52;7.97;;;;;;;18.17;43.64;93680.66;4996991;28;20025;-86
2022/04/15 04:28:14;;;;;;;9.15;7.53;;;;;;;18.18;43.74;93689.59;5012147;28;20513;-86
2022/04/15 04:30:40;;;;;;;10.98;7.57;;;;;;;18.18;43.62;93673.91;5014854;28;20033;-86
2022/04/15 04:33:05;;;;;;;49.08;38.83;;;;;;;18.17;43.44;93680.66;5005283;28;20041;-85
2022/04/15 04:35:31;;;;;;;42.90;32.78;;;;;;;18.18;43.96;93684.88;4997965;28;20504;-89
2022/04/15 04:37:56;;;;;;;32.45;23.98;;;;;;;18.22;43.91;93690.81;5047005;28;20040;-85
2022/04/15 04:40:21;;;;;;;16.35;12.93;;;;;;;18.22;43.97;93690.06;5028113;28;20045;-88
2022/04/15 04:42:47;;;;;;;13.27;8.80;;;;;;;18.27;44.00;93695.53;4999932;28;20380;-87
2022/04/15 04:45:13;;;;;;;17.40;7.95;;;;;;;18.24;43.74;93693.03;5039653;28;20037;-86
2022/04/15 04:47:38;;;;;;;21.05;7.72;;;;;;;18.25;43.83;93692.53;5012973;28;20056;-83
2022/04/15 04:50:11;;;;;;;16.60;8.68;;;;;;;18.26;43.74;93694.03;5013757;28;20044;-88
2022/04/15 04:52:37;;;;;;;20.95;9.20;;;;;;;18.21;43.82;93694.78;5001111;28;20044;-85
2022/04/15 04:55:04;;;;;;;13.85;7.70;;;;;;;18.19;43.44;93702.75;5004641;28;20036;-86
2022/04/15 04:57:29;;;;;;;22.58;9.10;;;;;;;18.14;45.50;93706.25;5028397;28;20047;-86
2022/04/15 04:59:57;;;;;;;20.88;8.07;;;;;;;18.07;46.70;93709.50;5004863;28;20042;-88
2022/04/15 05:02:22;;;;;;;20.30;8.52;;;;;;;17.99;47.76;93722.19;5018248;28;20092;-86
2022/04/15 05:04:48;;;;;;;18.75;8.95;;;;;;;17.95;49.35;93724.47;5018682;28;20068;-86
2022/04/15 05:07:14;;;;;;;17.30;10.60;;;;;;;17.91;49.30;93727.44;5023718;28;20038;-88
2022/04/15 05:09:42;;;;;;;16.65;10.32;;;;;;;17.85;49.35;93734.16;5001514;28;20395;-86
2022/04/15 05:12:10;;;;;;;20.08;13.43;;;;;;;17.83;49.54;93736.66;5014774;28;20423;-85
2022/04/15 05:14:36;;;;;;;20.25;12.15;;;;;;;17.78;50.09;93738.88;5012211;28;20037;-86
2022/04/15 05:17:01;;;;;;;15.82;10.70;;;;;;;17.78;50.21;93741.63;5023163;28;20774;-86
2022/04/15 05:19:27;;;;;;;14.93;10.60;;;;;;;17.80;50.04;93736.41;5010170;28;20561;-85
2022/04/15 05:21:53;;;;;;;13.27;10.90;;;;;;;17.81;49.55;93748.09;5000915;28;20025;-85
2022/04/15 05:24:18;;;;;;;25.00;11.75;;;;;;;17.83;49.95;93742.13;5021377;28;20554;-86
2022/04/15 05:26:44;;;;;;;16.52;11.23;;;;;;;17.87;49.46;93745.34;5006866;28;20128;-86
2022/04/15 05:29:09;;;;;;;31.20;11.50;;;;;;;17.89;49.15;93738.16;5012075;28;20041;-85
2022/04/15 05:31:35;;;;;;;32.13;13.90;;;;;;;17.91;48.93;93749.34;5040115;28;20033;-86
2022/04/15 05:34:01;;;;;;;22.77;12.50;;;;;;;17.92;48.68;93747.34;5023004;28;20041;-86
2022/04/15 05:36:26;;;;;;;19.10;10.57;;;;;;;17.95;48.00;93755.31;5031847;28;20033;-86
2022/04/15 05:38:52;;;;;;;27.45;11.75;;;;;;;17.97;48.13;93758.25;5011143;28;20038;-86
2022/04/15 05:41:17;;;;;;;24.75;10.35;;;;;;;17.95;47.88;93760.78;5028465;28;20026;-86
2022/04/15 05:43:43;;;;;;;30.20;9.93;;;;;;;17.98;47.67;93767.22;5011284;28;20455;-86
2022/04/15 05:46:09;;;;;;;29.15;10.10;;;;;;;17.97;47.35;93758.25;5010788;28;20077;-89
2022/04/15 05:48:35;;;;;;;32.45;10.05;;;;;;;18.00;47.34;93754.53;4997796;28;20136;-87
2022/04/15 05:51:00;;;;;;;16.42;9.65;;;;;;;18.00;47.33;93756.50;5040431;28;20049;-89
2022/04/15 05:53:26;;;;;;;30.90;10.18;;;;;;;18.03;47.04;93766.47;5025484;28;20037;-87
2022/04/15 05:55:51;;;;;;;24.25;10.00;;;;;;;18.03;47.10;93766.47;5020323;28;20454;-86
2022/04/15 05:58:16;;;;;;;27.88;10.32;;;;;;;18.06;46.97;93762.72;5029583;28;20521;-86
2022/04/15 06:00:42;;;;;;;31.58;11.07;;;;;;;18.00;46.54;93768.19;5028014;28;20038;-88
2022/04/15 06:03:07;;;;;;;33.45;10.70;;;;;;;18.04;46.60;93773.44;5024512;28;20061;-90
2022/04/15 06:05:33;;;;;;;25.98;10.15;;;;;;;18.04;46.78;93776.91;5018008;28;20039;-89
2022/04/15 06:07:58;;;;;;;44.42;10.38;;;;;;;18.11;47.20;93776.41;5018435;28;20501;-88
2022/04/15 06:10:24;;;;;;;35.53;10.88;;;;;;;18.12;46.93;93786.09;5047441;28;20036;-90
2022/04/15 06:13:00;;;;;;;30.05;10.98;;;;;;;18.17;46.56;93781.13;5032517;28;20226;-85
2022/04/15 06:15:28;;;;;;;24.83;9.27;;;;;;;18.21;46.59;93785.09;5014848;28;20038;-86
2022/04/15 06:17:54;;;;;;;23.55;12.57;;;;;;;18.15;47.49;93785.13;5016714;28;20029;-89
2022/04/15 06:20:22;;;;;;;26.15;13.45;;;;;;;18.05;48.16;93783.88;5027526;28;20538;-87
2022/04/15 06:22:59;;;;;;;21.85;10.48;;;;;;;17.98;48.85;93786.34;5011214;28;20053;-91
2022/04/15 06:25:26;;;;;;;20.52;13.02;;;;;;;17.95;49.40;93784.66;5010333;28;20087;-87
2022/04/15 06:27:54;;;;;;;28.58;15.07;;;;;;;17.92;49.36;93774.69;4995015;28;20068;-89
2022/04/15 06:30:21;;;;;;;24.70;14.48;;;;;;;17.96;49.61;93794.34;4993501;28;20041;-85
2022/04/15 06:32:47;;;;;;;30.23;16.13;;;;;;;17.95;49.32;93774.44;5019779;28;20037;-85
2022/04/15 06:35:12;;;;;;;36.05;16.02;;;;;;;17.94;48.88;93780.41;5017491;28;20095;-86
2022/04/15 06:37:37;;;;;;;25.30;14.18;;;;;;;17.96;48.68;93784.16;5026761;28;20029;-85
2022/04/15 06:40:03;;;;;;;36.53;14.18;;;;;;;17.93;48.23;93779.66;5026971;28;20033;-85
2022/04/15 06:42:30;;;;;;;36.28;14.52;;;;;;;17.92;48.34;93789.13;4993527;28;20041;-85
2022/04/15 06:44:56;;;;;;;42.42;14.80;;;;;;;17.91;48.23;93782.16;5011389;28;20556;-85
2022/04/15 06:47:21;;;;;;;28.50;13.88;;;;;;;17.93;48.29;93776.19;5028642;28;20041;-86
2022/04/15 06:49:46;;;;;;;30.27;14.00;;;;;;;17.96;48.09;93775.19;5031594;28;20037;-85
2022/04/15 06:52:12;;;;;;;29.02;14.05;;;;;;;17.94;48.29;93789.38;5013908;28;20037;-84
2022/04/15 06:54:38;;;;;;;42.75;13.85;;;;;;;17.96;48.34;93784.16;5016743;28;20036;-83
2022/04/15 06:57:05;;;;;;;34.05;13.40;;;;;;;17.97;48.47;93785.59;5034834;28;20448;-83
2022/04/15 06:59:30;;;;;;;39.45;15.15;;;;;;;17.99;48.00;93785.84;5020451;28;20747;-82
2022/04/15 07:01:56;;;;;;;63.28;19.08;;;;;;;17.98;48.01;93781.63;5024753;28;20116;-83
2022/04/15 07:04:23;;;;;;;74.00;24.15;;;;;;;17.98;48.41;93783.63;5029609;28;20053;-83
2022/04/15 07:06:48;;;;;;;69.60;19.58;;;;;;;18.02;47.73;93775.91;4995431;28;20088;-83
2022/04/15 07:09:14;;;;;;;64.50;21.73;;;;;;;18.04;48.17;93779.66;5029534;28;20049;-88
2022/04/15 07:11:39;;;;;;;80.97;21.20;;;;;;;18.03;47.95;93788.34;5011597;28;20120;-87
2022/04/15 07:14:05;;;;;;;82.13;22.20;;;;;;;18.05;47.78;93788.59;5013858;28;20403;-86
2022/04/15 07:16:31;;;;;;;89.05;21.80;;;;;;;18.05;47.92;93785.84;5028832;28;20430;-86
2022/04/15 07:18:57;;;;;;;80.28;22.45;;;;;;;18.05;47.71;93786.59;5013570;28;20065;-88
2022/04/15 07:21:22;;;;;;;72.97;18.73;;;;;;;18.06;48.02;93792.81;5024509;28;20561;-89
2022/04/15 07:23:48;;;;;;;62.83;20.67;;;;;;;18.09;47.81;93787.09;5016165;28;20033;-88
2022/04/15 07:26:14;;;;;;;59.60;18.52;;;;;;;18.05;48.03;93789.34;5031636;28;20110;-88
2022/04/15 07:28:39;;;;;;;58.30;19.92;;;;;;;18.07;47.85;93792.31;5057248;28;20029;-89
2022/04/15 07:31:13;;;;;;;44.15;17.75;;;;;;;18.05;47.82;93789.34;5012628;28;20060;-88
2022/04/15 07:33:39;;;;;;;58.78;20.17;;;;;;;18.01;48.91;93788.84;5032097;28;20076;-88
2022/04/15 07:36:31;;;;;;;35.95;19.55;;;;;;;17.94;50.13;93783.91;5023070;28;20026;-88
2022/04/15 07:38:50;;;;;;;43.15;24.30;;;;;;;17.89;50.64;93789.38;5030885;28;20037;-88
2022/04/15 07:41:16;;;;;;;50.75;24.00;;;;;;;17.90;51.15;93788.88;4998549;28;20416;-90
2022/04/15 07:43:42;;;;;;;63.55;26.02;;;;;;;17.87;51.33;93789.13;5017322;28;20036;-88
2022/04/15 07:46:07;;;;;;;37.58;20.48;;;;;;;17.84;51.59;93787.38;5014589;28;20054;-88
2022/04/15 07:48:34;;;;;;;59.30;23.33;;;;;;;17.80;52.08;93795.81;5024415;28;20875;-90
2022/04/15 07:50:59;;;;;;;64.35;25.23;;;;;;;17.82;52.36;93787.88;5017175;28;20033;-87
2022/04/15 07:53:25;;;;;;;106.47;33.88;;;;;;;17.81;52.21;93789.09;5032222;28;20611;-92
2022/04/15 07:55:51;;;;;;;98.82;28.48;;;;;;;17.83;52.82;93791.34;4999748;28;20025;-90
2022/04/15 07:58:18;;;;;;;97.63;28.23;;;;;;;17.75;53.32;93788.38;5013791;28;20398;-91
2022/04/15 08:00:44;;;;;;;243.88;55.45;;;;;;;17.77;52.84;93786.63;5003451;28;20033;-93
2022/04/15 08:03:11;;;;;;;177.27;38.05;;;;;;;17.78;53.37;93795.56;5021594;28;20039;-91
2022/04/15 08:05:37;;;;;;;143.48;35.03;;;;;;;17.85;52.61;93794.34;5019268;28;20042;-91
2022/04/15 08:08:04;;;;;;;250.60;61.88;;;;;;;17.90;52.14;93797.06;5013255;28;20494;-90
2022/04/15 08:10:30;;;;;;;126.88;38.58;;;;;;;17.88;52.49;93794.09;5018828;28;20517;-89
2022/04/15 08:12:56;;;;;;;94.57;30.20;;;;;;;17.91;52.14;93795.84;5020196;28;20037;-91
2022/04/15 08:15:21;;;;;;;87.88;35.60;;;;;;;17.94;51.92;93799.56;5014389;28;20410;-86
2022/04/15 08:17:47;;;;;;;66.88;26.17;;;;;;;17.96;51.74;93797.06;5036349;28;20041;-87
2022/04/15 08:20:14;;;;;;;75.70;27.77;;;;;;;17.99;51.41;93787.84;5008604;28;20503;-88
2022/04/15 08:22:40;;;;;;;45.17;26.05;;;;;;;18.03;50.63;93797.31;5010950;28;20507;-91
2022/04/15 08:25:06;;;;;;;56.47;28.58;;;;;;;18.05;50.39;93796.81;5017785;28;20046;-86
2022/04/15 08:27:31;;;;;;;62.70;26.02;;;;;;;18.07;50.60;93797.78;5015011;28;20526;-89
2022/04/15 08:29:57;;;;;;;60.10;29.77;;;;;;;18.13;50.00;93803.28;4999192;28;20041;-89
2022/04/15 08:32:22;;;;;;;53.75;28.98;;;;;;;18.10;50.23;93802.28;5004902;28;20037;-89
2022/04/15 08:34:48;;;;;;;64.18;30.63;;;;;;;18.12;49.73;93799.78;5017705;28;20414;-90
2022/04/15 08:37:14;;;;;;;98.03;37.97;;;;;;;18.14;49.88;93805.50;5002890;28;20038;-90
2022/04/15 08:39:40;;;;;;;72.80;33.28;;;;;;;18.14;49.93;93804.75;5026607;28;20056;-90
2022/04/15 08:42:09;;;;;;;73.35;33.45;;;;;;;18.17;49.37;93809.25;5007933;28;20390;-92
2022/04/15 08:44:34;;;;;;;103.65;40.05;;;;;;;18.18;49.77;93797.06;5026910;28;20498;-91
2022/04/15 08:47:02;;;;;;;178.57;49.80;;;;;;;18.22;49.58;93805.72;5013007;28;20071;-92
2022/04/15 08:49:30;;;;;;;157.05;49.35;;;;;;;18.23;48.91;93809.97;5036698;28;20080;-94
2022/04/15 08:52:01;;;;;;;157.90;51.40;;;;;;;18.25;49.24;93799.25;5022884;28;20051;-92
2022/04/15 08:54:35;;;;;;;155.48;55.65;;;;;;;18.25;48.77;93804.00;5018582;28;20145;-94
2022/04/15 08:57:08;;;;;;;141.63;50.47;;;;;;;18.27;48.90;93801.50;5030421;28;20056;-92
2022/04/15 08:59:33;;;;;;;125.03;48.83;;;;;;;18.29;48.97;93807.97;5053459;28;20618;-89
2022/04/15 09:01:59;;;;;;;109.05;47.25;;;;;;;18.30;48.79;93808.72;5002444;28;20116;-89
2022/04/15 09:04:26;;;;;;;99.93;44.28;;;;;;;18.32;48.62;93808.97;5023192;28;20072;-91
2022/04/15 09:06:56;;;;;;;104.68;45.25;;;;;;;18.31;48.78;93812.94;5001703;28;20045;-91
2022/04/15 09:09:31;;;;;;;96.07;45.03;;;;;;;18.30;49.06;93798.50;5021200;28;20029;-91
2022/04/15 09:11:58;;;;;;;111.38;45.47;;;;;;;18.33;48.64;93805.72;5049074;28;20044;-90
2022/04/15 09:14:24;;;;;;;116.18;45.10;;;;;;;18.34;48.32;93804.47;5027987;28;20033;-90
2022/04/15 09:16:50;;;;;;;104.88;47.90;;;;;;;18.35;48.98;93797.00;5036722;28;20033;-91
2022/04/15 09:19:16;;;;;;;99.05;48.95;;;;;;;18.36;48.39;93809.47;5035230;28;20201;-91
2022/04/15 09:21:54;;;;;;;126.60;54.45;;;;;;;18.37;48.11;93806.22;5005529;28;20059;-90
2022/04/15 09:24:42;;;;;;;144.40;55.65;;;;;;;18.36;48.26;93803.97;5018921;28;20124;-92
2022/04/15 09:27:07;;;;;;;132.07;52.78;;;;;;;18.39;48.25;93797.50;5036012;28;20051;-90
2022/04/15 09:29:34;;;;;;;146.48;58.83;;;;;;;18.42;47.95;93799.97;5039184;28;20454;-89
2022/04/15 09:32:09;;;;;;;156.35;60.38;;;;;;;18.40;47.80;93799.72;5020525;28;20037;-89
2022/04/15 09:34:56;;;;;;;217.27;65.13;;;;;;;18.40;48.30;93805.19;5017830;28;20128;-90
2022/04/15 09:37:26;;;;;;;154.45;60.53;;;;;;;18.43;48.06;93798.72;5036836;28;20045;-90
2022/04/15 09:40:14;;;;;;;147.33;64.60;;;;;;;18.44;48.23;93807.69;5029429;28;20503;-90
2022/04/15 09:42:50;;;;;;;120.32;58.58;;;;;;;18.40;48.05;93805.19;5032526;28;20119;-86
2022/04/15 09:45:28;;;;;;;136.98;63.63;;;;;;;18.42;47.95;93801.97;5018602;28;20040;-89
2022/04/15 09:47:57;;;;;;;132.43;60.63;;;;;;;18.46;47.98;93807.94;5024754;28;20033;-89
2022/04/15 09:50:37;;;;;;;120.38;55.78;;;;;;;18.46;48.04;93810.66;5016750;28;20037;-88
2022/04/15 09:53:17;;;;;;;217.00;70.05;;;;;;;18.48;48.92;93806.19;5007547;28;20033;-86
2022/04/15 09:55:46;;;;;;;138.98;62.53;;;;;;;18.52;48.35;93805.94;5017038;28;20497;-86
2022/04/15 09:58:18;;;;;;;144.93;64.97;;;;;;;18.54;47.93;93806.19;5036224;28;20064;-86
2022/04/15 10:00:53;;;;;;;137.65;59.40;;;;;;;18.58;47.77;93800.44;5041394;28;20533;-85
2022/04/15 10:03:22;;;;;;;125.45;60.28;;;;;;;18.58;48.37;93801.19;5012208;28;20121;-86
2022/04/15 10:05:54;;;;;;;106.68;56.15;;;;;;;18.61;47.79;93797.47;5010083;28;20041;-86
2022/04/15 10:08:23;;;;;;;177.98;110.15;;;;;;;18.64;47.49;93796.44;4995969;28;20037;-91
2022/04/15 10:10:50;;;;;;;120.97;57.20;;;;;;;18.65;48.11;93810.88;5031598;28;20475;-88
2022/04/15 10:13:15;;;;;;;112.05;53.85;;;;;;;18.58;47.42;93798.44;5030653;28;20044;-88
2022/04/15 10:15:41;;;;;;;84.65;42.80;;;;;;;18.49;48.29;93791.25;5015659;28;20040;-88
2022/04/15 10:18:08;;;;;;;71.25;33.53;;;;;;;18.45;49.04;93776.31;5012872;28;20045;-87
2022/04/15 10:20:33;;;;;;;47.58;29.27;;;;;;;18.44;49.17;93780.31;4992534;28;20060;-88
2022/04/15 10:23:06;;;;;;;45.65;26.52;;;;;;;18.39;49.65;93778.34;5026790;28;20041;-89
2022/04/15 10:25:31;;;;;;;33.67;24.35;;;;;;;18.36;49.89;93776.63;5013561;28;20106;-91
2022/04/15 10:28:07;;;;;;;37.65;22.85;;;;;;;18.35;49.77;93766.91;5013739;28;20038;-88
2022/04/15 10:30:32;;;;;;;38.30;23.80;;;;;;;18.36;49.32;93771.88;4979182;28;20033;-90
2022/04/15 10:32:59;;;;;;;46.45;22.50;;;;;;;18.36;49.51;93768.41;5013161;28;20041;-88
2022/04/15 10:35:30;;;;;;;66.65;23.25;;;;;;;18.37;49.07;93772.63;5046546;28;20037;-89
2022/04/15 10:38:01;;;;;;;48.28;23.58;;;;;;;18.39;48.65;93767.41;5010048;28;20052;-89
2022/04/15 10:40:27;;;;;;;;;;;;;;;18.38;48.74;93761.19;4994709;28;20037;-88
2022/04/15 10:42:53;;;;;;;48.92;24.67;;;;;;;18.40;48.94;93761.41;5026585;28;19917;-89
2022/04/15 10:45:25;;;;;;;53.22;24.80;;;;;;;18.37;48.69;93765.16;5016262;28;20043;-90
2022/04/15 10:47:56;;;;;;;43.03;25.58;;;;;;;18.31;48.55;93772.63;5021633;28;20083;-89
2022/04/15 10:50:22;;;;;;;42.42;23.13;;;;;;;18.28;48.74;93773.63;5016751;28;20132;-89
2022/04/15 10:52:48;;;;;;;47.60;24.60;;;;;;;18.26;48.79;93780.84;5046469;28;20033;-88
2022/04/15 10:55:16;;;;;;;53.33;22.83;;;;;;;18.27;49.34;93798.75;5018864;28;20487;-87
2022/04/15 10:57:43;;;;;;;43.53;20.77;;;;;;;18.24;49.68;93800.50;5024623;28;20106;-86
2022/04/15 11:02:58;;;;;;;58.85;36.65;;;;;;;18.28;50.85;93805.72;5032278;28;20055;-85
2022/04/15 11:05:41;;;;;;;39.15;23.75;;;;;;;18.25;50.34;93804.00;5017427;28;20499;-87
2022/04/15 11:08:09;;;;;;;60.80;30.88;;;;;;;18.25;50.39;93787.56;5028020;28;20040;-86
2022/04/15 11:10:44;;;;;;;71.90;38.78;;;;;;;18.25;50.01;93777.38;5013383;28;20030;-85
2022/04/15 11:13:33;;;;;;;41.97;24.88;;;;;;;18.28;49.93;93786.56;5031021;28;20029;-87
2022/04/15 11:16:13;;;;;;;43.17;26.67;;;;;;;18.30;49.86;93797.75;5030913;28;20861;-85
2022/04/15 11:18:54;;;;;;;40.13;24.52;;;;;;;18.31;49.93;93769.16;4998949;28;20034;-86
2022/04/15 11:21:21;;;;;;;32.58;20.15;;;;;;;18.30;49.70;93767.66;5030879;28;20045;-90